createdAt,value
2018-12-13T00:02:33.352Z,89.28
2018-12-13T00:07:33.282Z,88.61
2018-12-13T00:12:29.446Z,89.76
2018-12-13T00:17:25.617Z,89.46
2018-12-13T00:22:21.970Z,89.60
2018-12-13T00:27:18.114Z,89.16
2018-12-13T00:32:15.306Z,88.23
2018-12-13T00:37:11.577Z,88.41
2018-12-13T00:42:07.835Z,88.37
2018-12-13T00:47:05.236Z,88.51
2018-12-13T00:52:01.451Z,87.12
2018-12-13T00:56:57.679Z,87.70
2018-12-13T01:02:00.733Z,87.38
2018-12-13T01:06:57.091Z,88.30
2018-12-13T01:11:54.395Z,88.29
2018-12-13T01:16:50.515Z,88.52
2018-12-13T01:21:46.777Z,88.19
2018-12-13T01:26:42.995Z,88.49
2018-12-13T01:31:40.355Z,88.55
2018-12-13T01:36:36.575Z,88.41
2018-12-13T01:41:32.765Z,88.62
2018-12-13T01:46:29.642Z,88.95
2018-12-13T01:51:26.437Z,89.42
2018-12-13T01:56:23.234Z,88.68
2018-12-13T02:01:19.371Z,89.45
2018-12-13T02:06:15.458Z,89.49
2018-12-13T02:11:11.587Z,89.55
2018-12-13T02:16:08.625Z,89.50
2018-12-13T02:21:04.774Z,90.48
2018-12-13T02:26:00.867Z,89.16
2018-12-13T02:30:57.011Z,88.45
2018-12-13T02:35:53.153Z,89.80
2018-12-13T02:40:49.290Z,89.64
2018-12-13T02:45:45.380Z,88.17
2018-12-13T02:50:41.549Z,88.63
2018-12-13T02:55:37.682Z,88.80
2018-12-13T03:00:34.155Z,89.47
2018-12-13T03:05:30.277Z,89.55
2018-12-13T03:10:26.339Z,89.62
2018-12-13T03:15:22.455Z,89.26
2018-12-13T03:20:19.685Z,89.43
2018-12-13T03:25:15.792Z,89.13
2018-12-13T03:30:13.112Z,89.20
2018-12-13T03:35:09.257Z,88.26
2018-12-13T03:40:05.689Z,89.10
2018-12-13T03:45:01.879Z,89.37
2018-12-13T03:49:58.075Z,89.30
2018-12-13T03:54:54.210Z,88.73
2018-12-13T03:59:50.342Z,88.63
2018-12-13T04:04:48.636Z,88.64
2018-12-13T04:09:44.718Z,87.74
2018-12-13T04:14:41.850Z,88.50
2018-12-13T04:19:38.005Z,88.15
2018-12-13T04:24:34.354Z,88.16
2018-12-13T04:29:30.488Z,88.73
2018-12-13T04:34:26.700Z,89.07
2018-12-13T04:39:22.807Z,88.22
2018-12-13T04:44:18.980Z,88.96
2018-12-13T04:49:15.101Z,88.44
2018-12-13T04:54:11.209Z,87.65
2018-12-13T04:59:07.329Z,88.09
2018-12-13T05:04:03.492Z,88.42
2018-12-13T05:08:59.600Z,87.81
2018-12-13T05:13:55.774Z,87.88
2018-12-13T05:18:51.916Z,87.92
2018-12-13T05:23:48.013Z,87.21
2018-12-13T05:28:44.112Z,87.30
2018-12-13T05:33:40.205Z,87.46
2018-12-13T05:38:36.347Z,87.81
2018-12-13T05:43:32.454Z,87.64
2018-12-13T05:48:28.681Z,87.28
2018-12-13T05:53:24.775Z,87.15
2018-12-13T05:58:20.896Z,86.96
2018-12-13T06:03:18.116Z,87.08
2018-12-13T06:08:14.235Z,87.14
2018-12-13T06:13:10.411Z,86.80
2018-12-13T06:18:06.963Z,86.95
2018-12-13T06:23:03.416Z,87.50
2018-12-13T06:27:59.531Z,87.23
2018-12-13T06:32:55.638Z,87.23
2018-12-13T06:37:51.850Z,86.97
2018-12-13T06:42:47.982Z,87.01
2018-12-13T06:47:44.236Z,87.50
2018-12-13T06:52:40.307Z,87.12
2018-12-13T06:57:36.362Z,87.43
2018-12-13T07:02:33.240Z,87.14
2018-12-13T07:07:36.027Z,86.72
2018-12-13T07:12:34.117Z,86.69
2018-12-13T07:17:32.720Z,86.45
2018-12-13T07:22:30.690Z,86.48
2018-12-13T07:27:28.768Z,86.55
2018-12-13T07:32:29.372Z,86.91
2018-12-13T07:37:25.637Z,86.89
2018-12-13T07:42:21.729Z,85.77
2018-12-13T07:47:17.856Z,85.64
2018-12-13T07:52:14.016Z,85.93
2018-12-13T07:57:10.081Z,85.80
2018-12-13T08:02:07.492Z,85.66
2018-12-13T08:07:03.698Z,84.82
2018-12-13T08:11:59.848Z,85.19
2018-12-13T08:16:56.052Z,85.22
2018-12-13T08:21:52.249Z,84.91
2018-12-13T08:26:48.369Z,85.20
2018-12-13T08:31:47.592Z,84.79
2018-12-13T08:36:43.735Z,84.12
2018-12-13T08:41:39.849Z,83.64
2018-12-13T08:46:36.682Z,83.82
2018-12-13T08:51:33.021Z,83.80
2018-12-13T08:56:29.208Z,83.82
2018-12-13T09:01:25.438Z,84.49
2018-12-13T09:06:21.608Z,84.54
2018-12-13T09:11:19.157Z,84.55
2018-12-13T09:16:17.007Z,82.60
2018-12-13T09:21:14.291Z,82.59
2018-12-13T09:26:14.486Z,82.16
2018-12-13T09:31:11.526Z,82.66
2018-12-13T09:36:11.328Z,83.61
2018-12-13T09:41:08.931Z,82.64
2018-12-13T09:46:06.731Z,82.99
2018-12-13T09:51:03.819Z,83.15
2018-12-13T09:55:59.934Z,83.60
2018-12-13T10:00:56.007Z,82.96
2018-12-13T10:05:52.314Z,83.27
2018-12-13T10:10:48.381Z,83.68
2018-12-13T10:15:44.498Z,83.37
2018-12-13T10:20:40.617Z,82.61
2018-12-13T10:25:36.684Z,82.75
2018-12-13T10:30:33.738Z,83.23
2018-12-13T10:35:29.908Z,83.31
2018-12-13T10:40:26.512Z,82.07
2018-12-13T10:45:22.688Z,82.45
2018-12-13T10:50:18.787Z,82.57
2018-12-13T10:55:14.969Z,83.25
2018-12-13T11:00:14.345Z,82.65
2018-12-13T11:05:10.810Z,82.24
2018-12-13T11:10:08.162Z,82.24
2018-12-13T11:15:04.593Z,82.18
2018-12-13T11:20:00.680Z,82.59
2018-12-13T11:24:56.853Z,80.49
2018-12-13T11:30:05.177Z,80.64
2018-12-13T11:35:01.262Z,81.94
2018-12-13T11:39:57.366Z,81.75
2018-12-13T11:44:53.531Z,81.99
2018-12-13T11:49:49.589Z,81.92
2018-12-13T11:54:45.718Z,81.37
2018-12-13T11:59:41.858Z,81.45
2018-12-13T12:04:38.022Z,80.60
2018-12-13T12:09:34.249Z,80.72
2018-12-13T12:14:30.335Z,80.00
2018-12-13T12:19:26.368Z,79.78
2018-12-13T12:24:22.970Z,80.67
2018-12-13T12:29:19.102Z,80.16
2018-12-13T12:34:15.432Z,80.10
2018-12-13T12:39:11.496Z,78.38
2018-12-13T12:44:07.551Z,79.23
2018-12-13T12:49:03.674Z,79.37
2018-12-13T12:53:59.894Z,79.55
2018-12-13T12:58:56.065Z,79.20
2018-12-13T13:03:53.618Z,78.87
2018-12-13T13:08:49.777Z,79.36
2018-12-13T13:13:45.918Z,79.50
2018-12-13T13:18:42.002Z,77.64
2018-12-13T13:23:38.082Z,78.40
2018-12-13T13:28:34.450Z,79.38
2018-12-13T13:33:30.623Z,80.89
2018-12-13T13:38:26.754Z,80.61
2018-12-13T13:43:22.863Z,81.12
2018-12-13T13:48:18.994Z,79.65
2018-12-13T13:53:16.272Z,79.73
2018-12-13T13:58:12.765Z,78.80
2018-12-13T14:03:10.223Z,78.98
2018-12-13T14:08:06.861Z,78.24
2018-12-13T14:13:07.051Z,78.01
2018-12-13T14:18:03.584Z,77.83
2018-12-13T14:23:00.165Z,78.25
2018-12-13T14:27:56.598Z,76.72
2018-12-13T14:32:53.475Z,77.79
2018-12-13T14:37:49.567Z,77.85
2018-12-13T14:42:45.745Z,78.04
2018-12-13T14:47:41.865Z,79.02
2018-12-13T14:52:37.925Z,78.85
2018-12-13T14:57:34.027Z,78.54
2018-12-13T15:02:30.952Z,79.02
2018-12-13T15:07:27.036Z,79.66
2018-12-13T15:12:23.193Z,79.10
2018-12-13T15:17:19.374Z,78.68
2018-12-13T15:22:15.464Z,79.12
2018-12-13T15:27:11.532Z,79.44
2018-12-13T15:32:11.795Z,79.72
2018-12-13T15:37:10.260Z,80.41
2018-12-13T15:42:06.359Z,79.92
2018-12-13T15:47:02.422Z,81.57
2018-12-13T15:51:58.581Z,81.68
2018-12-13T15:56:54.633Z,81.92
2018-12-13T16:01:52.931Z,82.59
2018-12-13T16:06:49.035Z,82.63
2018-12-13T16:11:45.058Z,82.70
2018-12-13T16:16:41.125Z,83.26
2018-12-13T16:21:37.346Z,82.42
2018-12-13T16:26:34.978Z,82.47
2018-12-13T16:31:31.106Z,82.66
2018-12-13T16:36:27.265Z,82.84
2018-12-13T16:41:23.322Z,82.44
2018-12-13T16:46:19.371Z,83.17
2018-12-13T16:51:15.517Z,83.39
2018-12-13T16:56:11.660Z,83.98
2018-12-13T17:01:07.749Z,83.52
2018-12-13T17:06:04.117Z,84.42
2018-12-13T17:11:00.289Z,83.49
2018-12-13T17:15:56.330Z,83.82
2018-12-13T17:20:52.397Z,84.01
2018-12-13T17:25:48.461Z,83.88
2018-12-13T17:30:44.507Z,84.26
2018-12-13T17:35:40.554Z,84.02
2018-12-13T17:40:36.639Z,84.16
2018-12-13T17:45:32.788Z,84.84
2018-12-13T17:50:28.928Z,84.46
2018-12-13T17:55:25.018Z,85.09
2018-12-13T18:00:21.068Z,84.82
2018-12-13T18:05:17.103Z,84.77
2018-12-13T18:10:13.146Z,85.25
2018-12-13T18:15:09.295Z,85.58
2018-12-13T18:20:05.608Z,85.87
2018-12-13T18:25:01.865Z,86.19
2018-12-13T18:29:57.918Z,86.59
2018-12-13T18:34:53.963Z,85.94
2018-12-13T18:39:50.020Z,85.79
2018-12-13T18:44:46.049Z,85.26
2018-12-13T18:49:42.087Z,85.49
2018-12-13T18:54:38.208Z,84.83
2018-12-13T18:59:34.248Z,85.10
2018-12-13T19:04:30.277Z,84.62
2018-12-13T19:09:26.316Z,84.91
2018-12-13T19:14:22.354Z,85.56
2018-12-13T19:19:18.406Z,85.76
2018-12-13T19:24:14.440Z,85.82
2018-12-13T19:29:10.497Z,85.14
2018-12-13T19:34:06.544Z,85.20
2018-12-13T19:39:04.654Z,85.33
2018-12-13T19:44:01.461Z,84.87
2018-12-13T19:48:58.130Z,85.44
2018-12-13T19:53:54.829Z,85.02
2018-12-13T19:58:51.313Z,84.80
2018-12-13T20:03:47.985Z,85.10
2018-12-13T20:08:44.615Z,84.49
2018-12-13T20:13:41.234Z,84.71
2018-12-13T20:18:37.853Z,84.62
2018-12-13T20:23:34.492Z,85.31
2018-12-13T20:28:31.156Z,85.24
2018-12-13T20:33:27.791Z,84.84
2018-12-13T20:38:24.430Z,84.83
2018-12-13T20:43:20.787Z,85.01
2018-12-13T20:48:17.406Z,84.36
2018-12-13T20:53:13.973Z,84.52
2018-12-13T20:58:10.687Z,84.67
2018-12-13T21:03:06.719Z,85.31
2018-12-13T21:08:07.939Z,84.82
2018-12-13T21:13:04.074Z,84.82
2018-12-13T21:18:00.234Z,85.35
2018-12-13T21:22:56.262Z,85.74
2018-12-13T21:27:52.346Z,85.54
2018-12-13T21:32:49.399Z,86.47
2018-12-13T21:37:45.959Z,85.78
2018-12-13T21:42:42.458Z,86.45
2018-12-13T21:47:38.984Z,86.00
2018-12-13T21:52:35.636Z,86.13
2018-12-13T21:57:32.122Z,86.07
2018-12-13T22:02:28.937Z,85.72
2018-12-13T22:07:24.973Z,85.89
2018-12-13T22:12:21.007Z,84.83
2018-12-13T22:17:17.181Z,84.17
2018-12-13T22:22:14.055Z,84.91
2018-12-13T22:27:10.085Z,84.87
2018-12-13T22:32:09.325Z,85.41
2018-12-13T22:37:06.374Z,85.44
2018-12-13T22:42:02.772Z,85.99
2018-12-13T22:46:59.204Z,86.02
2018-12-13T22:51:55.946Z,86.50
2018-12-13T22:56:52.417Z,86.58
2018-12-13T23:01:49.491Z,87.47
2018-12-13T23:06:45.993Z,86.78
2018-12-13T23:11:42.309Z,86.52
2018-12-13T23:16:38.862Z,86.52
2018-12-13T23:21:35.558Z,86.64
2018-12-13T23:26:32.158Z,86.47
2018-12-13T23:31:28.554Z,87.66
2018-12-13T23:36:24.892Z,86.67
2018-12-13T23:41:21.296Z,87.05
2018-12-13T23:46:17.625Z,87.12
2018-12-13T23:51:13.909Z,87.34
2018-12-13T23:56:09.959Z,88.14
